Time;durP1;ratioP1;P1;durP2;ratioP2;P2;SDS_P1;SDS_P2;PMS_P1;PMS_P2;Temp;Humidity;BMP_temperature;BMP_pressure;BME280_temperature;BME280_humidity;BME280_pressure;Samples;Min_cycle;Max_cycle;Signal;HPM_P1;HPM_P2
2023/07/21 00:00:46;;;;;;;;;;;;;;;15.85;nan;100829.44;4097053;28;19928;-61
2023/07/21 00:02:48;;;;;;;;;;;;;;;15.80;nan;100831.97;4097879;28;19923;-62
2023/07/21 00:04:50;;;;;;;;;;;;;;;15.80;nan;100831.13;4097949;28;19922;-63
2023/07/21 00:06:52;;;;;;;;;;;;;;;15.84;nan;100827.75;4098417;28;19933;-64
2023/07/21 00:08:55;;;;;;;;;;;;;;;15.88;nan;100824.59;4096836;28;19923;-63
2023/07/21 00:10:57;;;;;;;;;;;;;;;15.87;nan;100822.97;4097658;28;19929;-63
2023/07/21 00:13:01;;;;;;;;;;;;;;;15.84;nan;100821.47;4097312;28;19923;-63
2023/07/21 00:15:02;;;;;;;;;;;;;;;15.84;nan;100814.13;4097333;28;19922;-63
2023/07/21 00:17:05;;;;;;;;;;;;;;;15.85;nan;100815.81;4097991;28;20007;-62
2023/07/21 00:19:07;;;;;;;;;;;;;;;15.88;nan;100813.72;4097025;28;19933;-63
2023/07/21 00:21:09;;;;;;;;;;;;;;;15.89;nan;100813.50;4098054;28;19922;-62
2023/07/21 00:23:12;;;;;;;;;;;;;;;15.86;nan;100803.03;4096973;28;19937;-64
2023/07/21 00:25:14;;;;;;;;;;;;;;;15.86;nan;100813.94;4097920;28;19936;-62
2023/07/21 00:27:17;;;;;;;;;;;;;;;15.84;nan;100807.88;4097983;28;20294;-61
2023/07/21 00:29:21;;;;;;;;;;;;;;;15.82;nan;100804.53;4097398;28;19932;-63
2023/07/21 00:31:23;;;;;;;;;;;;;;;15.78;nan;100801.38;4097210;28;20010;-63
2023/07/21 00:33:26;;;;;;;;;;;;;;;15.74;nan;100793.81;4097612;28;20759;-63
2023/07/21 00:35:29;;;;;;;;;;;;;;;15.70;nan;100793.38;4098064;28;19944;-63
2023/07/21 00:37:31;;;;;;;;;;;;;;;15.65;nan;100791.28;4097731;28;19933;-64
2023/07/21 00:39:34;;;;;;;;;;;;;;;15.64;nan;100791.50;4088290;28;19927;-62
2023/07/21 00:41:36;;;;;;;;;;;;;;;15.61;nan;100795.50;4097838;28;19963;-63
2023/07/21 00:43:38;;;;;;;;;;;;;;;15.59;nan;100796.72;4096856;28;19931;-63
2023/07/21 00:45:42;;;;;;;;;;;;;;;15.56;nan;100803.41;4112680;28;20507;-63
2023/07/21 00:47:44;;;;;;;;;;;;;;;15.48;nan;100803.63;4112139;28;20304;-61
2023/07/21 00:49:46;;;;;;;;;;;;;;;15.44;nan;100803.22;4097711;28;19926;-63
2023/07/21 00:51:48;;;;;;;;;;;;;;;15.43;nan;100796.09;4098342;28;19923;-63
2023/07/21 00:53:51;;;;;;;;;;;;;;;15.45;nan;100801.31;4096743;28;20308;-62
2023/07/21 00:55:53;;;;;;;;;;;;;;;15.41;nan;100795.47;4095303;28;19926;-62
2023/07/21 00:57:55;;;;;;;;;;;;;;;15.38;nan;100801.31;4096783;28;19922;-63
2023/07/21 00:59:58;;;;;;;;;;;;;;;15.34;nan;100799.22;4096902;28;20301;-61
2023/07/21 01:02:02;;;;;;;;;;;;;;;15.32;nan;100804.88;4097182;28;19922;-64
2023/07/21 01:04:05;;;;;;;;;;;;;;;15.36;nan;100797.97;4111849;28;19937;-63
2023/07/21 01:06:07;;;;;;;;;;;;;;;15.32;nan;100794.81;4096005;28;19929;-64
2023/07/21 01:08:10;;;;;;;;;;;;;;;15.25;nan;100802.16;4096850;28;20385;-63
2023/07/21 01:10:13;;;;;;;;;;;;;;;15.14;nan;100798.16;4096289;28;20416;-64
2023/07/21 01:12:15;;;;;;;;;;;;;;;15.08;nan;100803.59;4096587;28;19922;-62
2023/07/21 01:14:18;;;;;;;;;;;;;;;15.02;nan;100797.06;4098109;28;19929;-62
2023/07/21 01:16:21;;;;;;;;;;;;;;;14.97;nan;100802.28;4097375;28;20393;-62
2023/07/21 01:18:25;;;;;;;;;;;;;;;14.92;nan;100802.91;4095766;28;20305;-63
2023/07/21 01:20:28;;;;;;;;;;;;;;;14.86;nan;100795.56;4097503;28;20281;-63
2023/07/21 01:22:31;;;;;;;;;;;;;;;14.86;nan;100802.84;4096252;28;19922;-62
2023/07/21 01:24:37;;;;;;;;;;;;;;;14.84;nan;100797.63;4097083;28;19929;-63
2023/07/21 01:26:43;;;;;;;;;;;;;;;14.82;nan;100801.59;4097387;28;20725;-64
2023/07/21 01:28:47;;;;;;;;;;;;;;;14.78;nan;100798.47;4096877;28;19926;-62
2023/07/21 01:30:48;;;;;;;;;;;;;;;14.75;nan;100796.97;4096603;28;19922;-62
2023/07/21 01:32:51;;;;;;;;;;;;;;;14.75;nan;100796.97;4095824;28;19933;-63
2023/07/21 01:34:53;;;;;;;;;;;;;;;14.74;nan;100794.47;4097306;28;19930;-61
2023/07/21 01:36:56;;;;;;;;;;;;;;;14.75;nan;100796.97;4098425;28;19922;-64
2023/07/21 01:38:58;;;;;;;;;;;;;;;14.84;nan;100799.50;4107087;28;19936;-63
2023/07/21 01:41:00;;;;;;;;;;;;;;;14.92;nan;100793.88;4100411;28;19929;-62
2023/07/21 01:43:04;;;;;;;;;;;;;;;14.99;nan;100802.09;4099427;28;20278;-64
2023/07/21 01:45:06;;;;;;;;;;;;;;;14.99;nan;100796.66;4099732;28;19926;-63
2023/07/21 01:47:08;;;;;;;;;;;;;;;14.91;nan;100803.09;4100831;28;19926;-63
2023/07/21 01:49:11;;;;;;;;;;;;;;;14.80;nan;100798.25;4099610;28;19922;-63
2023/07/21 01:51:13;;;;;;;;;;;;;;;14.71;nan;100803.03;4100521;28;19929;-63
2023/07/21 01:53:18;;;;;;;;;;;;;;;14.59;nan;100803.56;4100854;28;19927;-62
2023/07/21 01:55:20;;;;;;;;;;;;;;;14.56;nan;100795.81;4099549;28;19977;-63
2023/07/21 01:57:25;;;;;;;;;;;;;;;14.56;nan;100795.81;4098499;28;19922;-63
2023/07/21 01:59:28;;;;;;;;;;;;;;;14.56;nan;100803.13;4113983;28;19926;-64
2023/07/21 02:01:31;;;;;;;;;;;;;;;14.56;nan;100801.25;4106840;28;20423;-62
2023/07/21 02:03:34;;;;;;;;;;;;;;;14.60;nan;100799.84;4098814;28;19985;-62
2023/07/21 02:05:35;;;;;;;;;;;;;;;14.63;nan;100798.59;4099223;28;19945;-63
2023/07/21 02:07:37;;;;;;;;;;;;;;;14.67;nan;100799.88;4114704;28;20425;-63
2023/07/21 02:09:39;;;;;;;;;;;;;;;14.71;nan;100798.41;4099231;28;19929;-63
2023/07/21 02:11:43;;;;;;;;;;;;;;;14.73;nan;100792.78;4099345;28;19922;-63
2023/07/21 02:14:08;;;;;;;;;;;;;;;14.65;nan;100799.22;4100084;28;19929;-62
2023/07/21 02:16:12;;;;;;;;;;;;;;;14.57;nan;100800.19;4115385;28;19929;-61
2023/07/21 02:18:14;;;;;;;;;;;;;;;14.54;nan;100795.16;4098276;28;20573;-61
2023/07/21 02:20:16;;;;;;;;;;;;;;;14.58;nan;100795.63;4099096;28;20347;-62
2023/07/21 02:22:18;;;;;;;;;;;;;;;14.61;nan;100797.97;4098842;28;20400;-64
2023/07/21 02:24:21;;;;;;;;;;;;;;;14.56;nan;100801.25;4099081;28;20446;-63
2023/07/21 02:26:23;;;;;;;;;;;;;;;14.51;nan;100801.00;4098659;28;19922;-62
2023/07/21 02:28:25;;;;;;;;;;;;;;;14.42;nan;100803.06;4099314;28;19928;-62
2023/07/21 02:30:29;;;;;;;;;;;;;;;14.40;nan;100796.16;4099032;28;19929;-63
2023/07/21 02:32:33;;;;;;;;;;;;;;;14.40;nan;100797.00;4099052;28;19922;-62
2023/07/21 02:34:37;;;;;;;;;;;;;;;14.37;nan;100791.97;4106725;28;19930;-61
2023/07/21 02:36:40;;;;;;;;;;;;;;;14.30;nan;100793.81;4099655;28;20403;-63
2023/07/21 02:38:42;;;;;;;;;;;;;;;14.26;nan;100795.22;4105504;28;19926;-61
2023/07/21 02:40:44;;;;;;;;;;;;;;;14.24;nan;100791.88;4098298;28;19922;-60
2023/07/21 02:42:46;;;;;;;;;;;;;;;14.21;nan;100792.28;4099057;28;19923;-61
2023/07/21 02:44:49;;;;;;;;;;;;;;;14.16;nan;100792.06;4099033;28;19933;-62
2023/07/21 02:46:51;;;;;;;;;;;;;;;14.14;nan;100786.00;4099670;28;20482;-62
2023/07/21 02:48:54;;;;;;;;;;;;;;;14.12;nan;100780.75;4098040;28;19923;-62
2023/07/21 02:50:56;;;;;;;;;;;;;;;14.06;nan;100789.69;4099255;28;19926;-62
2023/07/21 02:52:58;;;;;;;;;;;;;;;14.08;nan;100779.47;4099390;28;19929;-62
2023/07/21 02:55:02;;;;;;;;;;;;;;;14.10;nan;100780.09;4098723;28;20411;-61
2023/07/21 02:57:04;;;;;;;;;;;;;;;14.12;nan;100769.03;4096924;28;19933;-62
2023/07/21 02:59:07;;;;;;;;;;;;;;;14.12;nan;100779.91;4098151;28;19926;-61
2023/07/21 03:01:09;;;;;;;;;;;;;;;14.16;nan;100781.19;4099128;28;20720;-63
2023/07/21 03:03:15;;;;;;;;;;;;;;;14.17;nan;100775.56;4082056;29;19933;-60
2023/07/21 03:05:21;;;;;;;;;;;;;;;14.15;nan;100772.22;4090727;28;19931;-63
2023/07/21 03:07:24;;;;;;;;;;;;;;;14.12;nan;100763.59;4104771;28;19937;-63
2023/07/21 03:09:35;;;;;;;;;;;;;;;14.09;nan;100766.72;4090204;28;19953;-61
2023/07/21 03:11:38;;;;;;;;;;;;;;;14.06;nan;100765.25;4097786;28;20420;-63
2023/07/21 03:13:48;;;;;;;;;;;;;;;14.07;nan;100761.47;4098075;28;19929;-62
2023/07/21 03:15:51;;;;;;;;;;;;;;;14.07;nan;100761.47;4099318;28;19922;-63
2023/07/21 03:17:57;;;;;;;;;;;;;;;14.08;nan;100759.63;4097483;28;19941;-62
2023/07/21 03:20:05;;;;;;;;;;;;;;;14.12;nan;100769.03;4091006;28;19926;-62
2023/07/21 03:22:08;;;;;;;;;;;;;;;14.12;nan;100769.03;4098072;28;19933;-64
2023/07/21 03:24:10;;;;;;;;;;;;;;;14.11;nan;100761.94;4113414;28;19932;-64
2023/07/21 03:26:13;;;;;;;;;;;;;;;14.08;nan;100767.78;4099552;28;19928;-64
2023/07/21 03:28:18;;;;;;;;;;;;;;;14.04;nan;100775.47;4098953;28;19926;-64
2023/07/21 03:30:21;;;;;;;;;;;;;;;14.01;nan;100775.84;4098485;28;19929;-64
2023/07/21 03:32:42;;;;;;;;;;;;;;;13.97;nan;100780.84;4097197;29;20312;-63
2023/07/21 03:34:48;;;;;;;;;;;;;;;13.95;nan;100777.50;4090633;28;19972;-64
2023/07/21 03:36:51;;;;;;;;;;;;;;;13.92;nan;100786.06;4097571;28;19922;-63
2023/07/21 03:38:54;;;;;;;;;;;;;;;13.90;nan;100782.69;4098073;28;19922;-62
2023/07/21 03:41:00;;;;;;;;;;;;;;;13.92;nan;100775.19;4113641;28;19922;-64
2023/07/21 03:43:04;;;;;;;;;;;;;;;13.92;nan;100780.63;4112800;28;19933;-64
2023/07/21 03:45:09;;;;;;;;;;;;;;;13.93;nan;100779.56;4114030;28;19922;-64
2023/07/21 03:47:11;;;;;;;;;;;;;;;13.92;nan;100779.75;4099656;28;19929;-64
2023/07/21 03:49:19;;;;;;;;;;;;;;;13.95;nan;100784.78;4104843;28;20774;-63
2023/07/21 03:51:27;;;;;;;;;;;;;;;13.93;nan;100778.72;4105044;28;19934;-64
2023/07/21 03:53:30;;;;;;;;;;;;;;;13.86;nan;100781.41;4089488;28;19927;-63
2023/07/21 03:55:33;;;;;;;;;;;;;;;13.78;nan;100785.09;4098158;28;19922;-63
2023/07/21 03:57:36;;;;;;;;;;;;;;;13.76;nan;100786.34;4097455;28;20343;-63
2023/07/21 03:59:41;;;;;;;;;;;;;;;13.75;nan;100790.94;4096732;28;19934;-64
2023/07/21 04:01:43;;;;;;;;;;;;;;;13.73;nan;100794.88;4098652;28;19933;-65
2023/07/21 04:03:47;;;;;;;;;;;;;;;13.72;nan;100785.06;4098299;28;19922;-63
2023/07/21 04:05:49;;;;;;;;;;;;;;;13.74;nan;100785.69;4088720;28;19926;-63
2023/07/21 04:07:51;;;;;;;;;;;;;;;13.76;nan;100780.91;4098063;28;19922;-64
2023/07/21 04:09:54;;;;;;;;;;;;;;;13.78;nan;100773.41;4081802;29;19926;-63
2023/07/21 04:11:57;;;;;;;;;;;;;;;13.79;nan;100767.78;4096725;28;19932;-64
2023/07/21 04:14:00;;;;;;;;;;;;;;;13.84;nan;100773.47;4097905;28;20414;-64
2023/07/21 04:16:03;;;;;;;;;;;;;;;13.87;nan;100761.34;4098504;28;19926;-64
2023/07/21 04:18:05;;;;;;;;;;;;;;;13.87;nan;100767.63;4096820;29;20503;-64
2023/07/21 04:20:10;;;;;;;;;;;;;;;13.90;nan;100763.66;4098014;28;19926;-60
2023/07/21 04:22:12;;;;;;;;;;;;;;;13.93;nan;100767.88;4090137;28;19922;-64
2023/07/21 04:24:14;;;;;;;;;;;;;;;13.97;nan;100763.75;4097266;28;19926;-64
2023/07/21 04:26:17;;;;;;;;;;;;;;;14.03;nan;100761.06;4097736;28;19930;-62
2023/07/21 04:28:20;;;;;;;;;;;;;;;14.09;nan;100772.16;4113179;28;19922;-64
2023/07/21 04:30:23;;;;;;;;;;;;;;;14.18;nan;100773.66;4112682;28;20005;-62
2023/07/21 04:32:25;;;;;;;;;;;;;;;14.23;nan;100763.03;4097354;28;20324;-64
2023/07/21 04:34:32;;;;;;;;;;;;;;;14.29;nan;100761.41;4097238;28;19926;-63
2023/07/21 04:36:35;;;;;;;;;;;;;;;14.33;nan;100768.13;4087643;28;19933;-64
2023/07/21 04:38:42;;;;;;;;;;;;;;;14.38;nan;100762.91;4096485;28;19944;-63
2023/07/21 04:40:49;;;;;;;;;;;;;;;14.45;nan;100765.66;4097562;28;20296;-62
2023/07/21 04:42:52;;;;;;;;;;;;;;;14.50;nan;100758.59;4096793;28;19923;-63
2023/07/21 04:44:55;;;;;;;;;;;;;;;14.56;nan;100755.06;4097201;28;19929;-63
2023/07/21 04:46:57;;;;;;;;;;;;;;;14.63;nan;100746.97;4096654;28;19926;-63
2023/07/21 04:49:09;;;;;;;;;;;;;;;14.69;nan;100754.28;4096871;28;19934;-64
2023/07/21 04:51:21;;;;;;;;;;;;;;;14.77;nan;100754.09;4096493;28;19922;-63
2023/07/21 04:53:23;;;;;;;;;;;;;;;14.87;nan;100758.31;4095429;28;20304;-65
2023/07/21 04:55:26;;;;;;;;;;;;;;;14.95;nan;100760.84;4112620;28;20292;-62
2023/07/21 04:57:30;;;;;;;;;;;;;;;14.98;nan;100755.00;4112592;28;19934;-63
2023/07/21 04:59:34;;;;;;;;;;;;;;;15.03;nan;100747.06;4096644;28;19923;-61
2023/07/21 05:01:38;;;;;;;;;;;;;;;15.10;nan;100752.53;4112860;28;19922;-61
2023/07/21 05:03:41;;;;;;;;;;;;;;;15.17;nan;100749.81;4112596;28;19922;-63
2023/07/21 05:05:45;;;;;;;;;;;;;;;15.22;nan;100748.16;4096451;28;19922;-64
2023/07/21 05:07:47;;;;;;;;;;;;;;;15.29;nan;100743.53;4097134;28;19930;-62
2023/07/21 05:09:50;;;;;;;;;;;;;;;15.35;nan;100747.31;4096971;28;19933;-62
2023/07/21 05:11:52;;;;;;;;;;;;;;;15.37;nan;100737.06;4095344;28;20328;-63
2023/07/21 05:14:14;;;;;;;;;;;;;;;15.40;nan;100739.34;4096038;28;21071;-62
2023/07/21 05:16:28;;;;;;;;;;;;;;;15.47;nan;100733.94;4097753;28;19926;-63
2023/07/21 05:18:50;;;;;;;;;;;;;;;15.52;nan;100739.56;4096045;28;19922;-62
2023/07/21 05:21:19;;;;;;;;;;;;;;;15.60;nan;100731.19;4097023;28;19923;-63
2023/07/21 05:23:25;;;;;;;;;;;;;;;15.67;nan;100732.03;4095975;28;19922;-61
2023/07/21 05:25:33;;;;;;;;;;;;;;;15.74;nan;100732.03;4080442;29;20464;-63
2023/07/21 05:27:36;;;;;;;;;;;;;;;15.80;nan;100735.81;4084878;28;19926;-64
2023/07/21 05:29:41;;;;;;;;;;;;;;;15.84;nan;100737.88;4096814;28;20272;-64
2023/07/21 05:31:45;;;;;;;;;;;;;;;15.89;nan;100736.41;4111588;28;20285;-61
2023/07/21 05:34:01;;;;;;;;;;;;;;;15.91;nan;100728.88;4096318;28;19989;-62
2023/07/21 05:36:07;;;;;;;;;;;;;;;15.96;nan;100729.09;4096323;28;19926;-62
2023/07/21 05:38:10;;;;;;;;;;;;;;;15.99;nan;100732.22;4096139;28;20382;-64
2023/07/21 05:40:14;;;;;;;;;;;;;;;16.02;nan;100730.97;4097491;28;19926;-62
2023/07/21 05:42:16;;;;;;;;;;;;;;;16.05;nan;100730.53;4096222;28;19929;-64
2023/07/21 05:44:18;;;;;;;;;;;;;;;16.03;nan;100733.47;4096212;28;19922;-63
2023/07/21 05:46:20;;;;;;;;;;;;;;;16.04;nan;100734.28;4095115;28;19926;-63
2023/07/21 05:48:37;;;;;;;;;;;;;;;16.06;nan;100729.47;4103268;28;19922;-63
2023/07/21 05:50:41;;;;;;;;;;;;;;;16.11;nan;100731.53;4096240;28;19923;-64
2023/07/21 05:52:45;;;;;;;;;;;;;;;16.16;nan;100729.88;4110874;28;19926;-64
2023/07/21 05:54:55;;;;;;;;;;;;;;;16.19;nan;100729.44;4096775;28;19922;-64
2023/07/21 05:57:01;;;;;;;;;;;;;;;16.24;nan;100727.94;4096576;28;19940;-61
2023/07/21 05:59:09;;;;;;;;;;;;;;;16.29;nan;100736.31;4096229;28;19926;-61
2023/07/21 06:01:13;;;;;;;;;;;;;;;16.35;nan;100738.19;4088733;28;19937;-64
2023/07/21 06:03:15;;;;;;;;;;;;;;;16.36;nan;100742.56;4096453;28;19927;-64
2023/07/21 06:05:20;;;;;;;;;;;;;;;16.39;nan;100739.41;4096345;28;20384;-61
2023/07/21 06:07:54;;;;;;;;;;;;;;;16.44;nan;100739.63;4096970;28;19945;-62
2023/07/21 06:10:06;;;;;;;;;;;;;;;16.48;nan;100743.56;4112267;28;20438;-61
2023/07/21 06:12:37;;;;;;;;;;;;;;;16.49;nan;100736.22;4088658;28;19930;-64
2023/07/21 06:15:10;;;;;;;;;;;;;;;16.45;nan;100733.09;4085297;28;20273;-64
2023/07/21 06:17:28;;;;;;;;;;;;;;;16.44;nan;100736.03;4088548;28;19927;-64
2023/07/21 06:19:31;;;;;;;;;;;;;;;16.46;nan;100729.34;4111457;28;19922;-62
2023/07/21 06:21:34;;;;;;;;;;;;;;;16.52;nan;100738.53;4096190;28;19929;-63
2023/07/21 06:23:37;;;;;;;;;;;;;;;16.58;nan;100734.94;4098403;28;19927;-64
2023/07/21 06:25:39;;;;;;;;;;;;;;;16.63;nan;100742.47;4099754;28;19930;-63
2023/07/21 06:27:48;;;;;;;;;;;;;;;16.62;nan;100738.09;4114148;28;19922;-63
2023/07/21 06:29:52;;;;;;;;;;;;;;;16.58;nan;100737.66;4098650;28;20364;-64
2023/07/21 06:32:00;;;;;;;;;;;;;;;16.53;nan;100735.56;4098949;28;19949;-64
2023/07/21 06:34:13;;;;;;;;;;;;;;;16.52;nan;100736.66;4098190;28;21183;-64
2023/07/21 06:36:20;;;;;;;;;;;;;;;16.52;nan;100728.47;4099148;28;19922;-63
2023/07/21 06:38:40;;;;;;;;;;;;;;;16.56;nan;100732.41;4098746;28;19927;-64
2023/07/21 06:41:05;;;;;;;;;;;;;;;16.63;nan;100723.38;4096622;28;19929;-62
2023/07/21 06:43:26;;;;;;;;;;;;;;;16.65;nan;100729.47;4097532;28;19926;-64
2023/07/21 06:45:49;;;;;;;;;;;;;;;16.65;nan;100729.47;4092833;28;20316;-62
2023/07/21 06:48:12;;;;;;;;;;;;;;;16.66;nan;100726.53;4078562;28;19923;-62
2023/07/21 06:50:33;;;;;;;;;;;;;;;16.68;nan;100729.84;4099649;28;19926;-61
2023/07/21 06:52:36;;;;;;;;;;;;;;;16.68;nan;100727.13;4098542;28;19932;-60
2023/07/21 06:54:42;;;;;;;;;;;;;;;16.67;nan;100730.06;4095663;28;19944;-62
2023/07/21 06:56:43;;;;;;;;;;;;;;;16.70;nan;100732.38;4099372;28;19922;-60
2023/07/21 06:58:45;;;;;;;;;;;;;;;16.74;nan;100739.91;4099438;28;20385;-62
2023/07/21 07:00:48;;;;;;;;;;;;;;;16.81;nan;100736.31;4097698;28;19922;-62
2023/07/21 07:02:50;;;;;;;;;;;;;;;16.84;nan;100730.41;4097485;28;19941;-62
2023/07/21 07:04:54;;;;;;;;;;;;;;;16.82;nan;100733.34;4099789;28;19929;-64
2023/07/21 07:06:56;;;;;;;;;;;;;;;16.83;nan;100728.72;4114263;28;19922;-62
2023/07/21 07:08:58;;;;;;;;;;;;;;;16.83;nan;100729.56;4098964;28;19929;-64
2023/07/21 07:11:02;;;;;;;;;;;;;;;16.83;nan;100729.56;4099132;28;19949;-63
2023/07/21 07:13:04;;;;;;;;;;;;;;;16.85;nan;100730.19;4098022;28;19926;-62
2023/07/21 07:15:09;;;;;;;;;;;;;;;16.85;nan;100727.47;4098050;28;20318;-62
2023/07/21 07:17:12;;;;;;;;;;;;;;;16.85;nan;100724.75;4099357;28;19929;-62
2023/07/21 07:19:16;;;;;;;;;;;;;;;16.86;nan;100729.16;4097943;28;20672;-62
2023/07/21 07:21:18;;;;;;;;;;;;;;;16.87;nan;100725.38;4091070;28;19922;-62
2023/07/21 07:23:20;;;;;;;;;;;;;;;16.89;nan;100722.44;4097244;28;20393;-61
2023/07/21 07:25:24;;;;;;;;;;;;;;;16.90;nan;100722.22;4098292;28;19929;-62
2023/07/21 07:27:28;;;;;;;;;;;;;;;16.90;nan;100721.38;4098385;28;20153;-63
2023/07/21 07:29:30;;;;;;;;;;;;;;;16.91;nan;100717.56;4099051;28;19930;-63
2023/07/21 07:31:32;;;;;;;;;;;;;;;16.93;nan;100719.03;4099094;28;19922;-63
2023/07/21 07:33:33;;;;;;;;;;;;;;;16.97;nan;100724.06;4098614;28;19922;-61
2023/07/21 07:35:35;;;;;;;;;;;;;;;17.00;nan;100716.25;4098441;28;19926;-63
2023/07/21 07:37:39;;;;;;;;;;;;;;;17.02;nan;100716.91;4099489;28;20324;-62
2023/07/21 07:39:40;;;;;;;;;;;;;;;17.08;nan;100713.28;4098909;28;19929;-61
2023/07/21 07:41:42;;;;;;;;;;;;;;;17.14;nan;100717.00;4098476;28;19926;-62
2023/07/21 07:43:46;;;;;;;;;;;;;;;17.20;nan;100718.84;4097808;28;19932;-62
2023/07/21 07:45:48;;;;;;;;;;;;;;;17.25;nan;100715.47;4099114;28;19929;-59
2023/07/21 07:47:52;;;;;;;;;;;;;;;17.29;nan;100717.53;4097914;28;19927;-61
2023/07/21 07:49:54;;;;;;;;;;;;;;;17.34;nan;100719.59;4098703;28;19922;-62
2023/07/21 07:51:56;;;;;;;;;;;;;;;17.41;nan;100716.81;4098549;28;19929;-62
2023/07/21 07:54:01;;;;;;;;;;;;;;;17.45;nan;100713.41;4098402;28;20391;-58
2023/07/21 07:56:03;;;;;;;;;;;;;;;17.50;nan;100720.91;4097513;28;19922;-61
2023/07/21 07:58:06;;;;;;;;;;;;;;;17.55;nan;100715.63;4097564;28;19923;-63
2023/07/21 08:00:11;;;;;;;;;;;;;;;17.61;nan;100717.47;4099304;28;19944;-62
2023/07/21 08:02:13;;;;;;;;;;;;;;;17.67;nan;100717.63;4097877;28;19932;-62
2023/07/21 08:04:15;;;;;;;;;;;;;;;17.70;nan;100714.47;4097265;28;19948;-61
2023/07/21 08:06:18;;;;;;;;;;;;;;;17.72;nan;100717.78;4098095;28;19923;-63
2023/07/21 08:08:22;;;;;;;;;;;;;;;17.76;nan;100708.09;4096825;28;19930;-62
2023/07/21 08:10:27;;;;;;;;;;;;;;;17.78;nan;100708.69;4097861;28;19948;-64
2023/07/21 08:12:28;;;;;;;;;;;;;;;17.83;nan;100706.94;4096760;28;19923;-62
2023/07/21 08:14:30;;;;;;;;;;;;;;;17.87;nan;100707.34;4097609;28;19937;-63
2023/07/21 08:16:35;;;;;;;;;;;;;;;17.90;nan;100703.34;4098072;28;20373;-64
2023/07/21 08:18:37;;;;;;;;;;;;;;;17.94;nan;100701.84;4096615;28;19933;-62
2023/07/21 08:20:39;;;;;;;;;;;;;;;17.98;nan;100703.88;4097610;28;19930;-62
2023/07/21 08:22:41;;;;;;;;;;;;;;;18.01;nan;100700.69;4097677;28;19929;-63
2023/07/21 08:24:43;;;;;;;;;;;;;;;18.05;nan;100698.34;4096628;28;19933;-61
2023/07/21 08:26:45;;;;;;;;;;;;;;;18.07;nan;100693.50;4098275;28;19929;-63
2023/07/21 08:28:47;;;;;;;;;;;;;;;18.13;nan;100702.66;4097425;28;19923;-63
2023/07/21 08:30:49;;;;;;;;;;;;;;;18.14;nan;100694.25;4097876;28;19926;-64
2023/07/21 08:32:56;;;;;;;;;;;;;;;18.17;nan;100698.44;4096581;28;19928;-62
2023/07/21 08:34:58;;;;;;;;;;;;;;;18.20;nan;100692.50;4097027;28;19927;-64
2023/07/21 08:37:00;;;;;;;;;;;;;;;18.23;nan;100694.78;4098431;28;19923;-61
2023/07/21 08:39:02;;;;;;;;;;;;;;;18.26;nan;100701.66;4097591;28;19922;-64
2023/07/21 08:41:06;;;;;;;;;;;;;;;18.29;nan;100693.00;4097662;28;20170;-62
2023/07/21 08:43:08;;;;;;;;;;;;;;;18.31;nan;100697.19;4097030;28;19932;-61
2023/07/21 08:45:10;;;;;;;;;;;;;;;18.33;nan;100699.69;4097787;28;19922;-63
2023/07/21 08:47:12;;;;;;;;;;;;;;;18.35;nan;100694.81;4096041;28;20401;-61
2023/07/21 08:49:17;;;;;;;;;;;;;;;18.37;nan;100696.28;4098022;28;19929;-62
2023/07/21 08:51:19;;;;;;;;;;;;;;;18.36;nan;100689.13;4096473;28;19928;-62
2023/07/21 08:53:21;;;;;;;;;;;;;;;18.36;nan;100688.31;4096759;28;19932;-63
2023/07/21 08:55:24;;;;;;;;;;;;;;;18.39;nan;100687.03;4097475;28;20328;-63
2023/07/21 08:57:26;;;;;;;;;;;;;;;18.41;nan;100695.81;4097068;28;20304;-63
2023/07/21 08:59:28;;;;;;;;;;;;;;;18.43;nan;100690.94;4097037;28;19922;-63
2023/07/21 09:01:30;;;;;;;;;;;;;;;18.45;nan;100695.13;4097084;28;19933;-62
2023/07/21 09:03:33;;;;;;;;;;;;;;;18.49;nan;100695.50;4096913;28;20435;-61
2023/07/21 09:05:36;;;;;;;;;;;;;;;18.50;nan;100689.78;4097940;28;19926;-62
2023/07/21 09:07:40;;;;;;;;;;;;;;;18.52;nan;100697.78;4096815;28;19926;-64
2023/07/21 09:09:44;;;;;;;;;;;;;;;18.54;nan;100691.00;4097381;28;20392;-65
2023/07/21 09:11:47;;;;;;;;;;;;;;;18.58;nan;100694.09;4097732;28;19932;-65
2023/07/21 09:13:53;;;;;;;;;;;;;;;18.61;nan;100690.91;4096261;28;20328;-63
2023/07/21 09:15:56;;;;;;;;;;;;;;;18.65;nan;100685.81;4097578;28;20496;-65
2023/07/21 09:17:59;;;;;;;;;;;;;;;18.67;nan;100683.69;4096145;28;19922;-65
2023/07/21 09:20:05;;;;;;;;;;;;;;;18.69;nan;100687.84;4097420;28;19932;-64
2023/07/21 09:22:13;;;;;;;;;;;;;;;18.71;nan;100684.88;4096975;28;20426;-64
2023/07/21 09:24:15;;;;;;;;;;;;;;;18.73;nan;100680.03;4104171;28;20923;-65
2023/07/21 09:26:21;;;;;;;;;;;;;;;18.76;nan;100686.91;4097126;28;20301;-65
2023/07/21 09:28:38;;;;;;;;;;;;;;;18.79;nan;100679.06;4095674;28;19926;-64
2023/07/21 09:30:47;;;;;;;;;;;;;;;18.82;nan;100680.50;4096916;28;19929;-64
2023/07/21 09:32:49;;;;;;;;;;;;;;;18.84;nan;100682.00;4096628;28;19922;-64
2023/07/21 09:34:55;;;;;;;;;;;;;;;18.89;nan;100675.81;4097817;28;20374;-64
2023/07/21 09:36:57;;;;;;;;;;;;;;;18.94;nan;100677.84;4097109;28;20389;-65
2023/07/21 09:39:03;;;;;;;;;;;;;;;18.96;nan;100678.44;4097177;28;19926;-64
2023/07/21 09:41:06;;;;;;;;;;;;;;;19.01;nan;100679.44;4097134;28;19932;-64
2023/07/21 09:43:09;;;;;;;;;;;;;;;19.04;nan;100672.63;4095795;28;20477;-64
2023/07/21 09:45:11;;;;;;;;;;;;;;;19.06;nan;100668.59;4097446;28;19931;-64
2023/07/21 09:47:14;;;;;;;;;;;;;;;19.09;nan;100673.59;4096759;28;20023;-65
2023/07/21 09:49:16;;;;;;;;;;;;;;;19.15;nan;100668.25;4097657;28;19922;-64
2023/07/21 09:51:18;;;;;;;;;;;;;;;19.17;nan;100666.94;4096219;28;19926;-64
2023/07/21 09:53:21;;;;;;;;;;;;;;;19.22;nan;100671.72;4096709;28;19932;-64
2023/07/21 09:55:25;;;;;;;;;;;;;;;19.26;nan;100668.28;4097225;28;19945;-64
2023/07/21 09:57:26;;;;;;;;;;;;;;;19.29;nan;100661.47;4096562;28;20387;-64
2023/07/21 09:59:28;;;;;;;;;;;;;;;19.32;nan;100661.00;4099712;28;19923;-65
2023/07/21 10:01:31;;;;;;;;;;;;;;;19.36;nan;100662.19;4099750;28;19926;-64
2023/07/21 10:03:34;;;;;;;;;;;;;;;19.40;nan;100670.75;4099664;28;20103;-64
2023/07/21 10:05:37;;;;;;;;;;;;;;;19.44;nan;100672.78;4100174;28;19926;-64
2023/07/21 10:07:39;;;;;;;;;;;;;;;19.47;nan;100663.28;4098717;28;19923;-64
2023/07/21 10:09:43;;;;;;;;;;;;;;;19.51;nan;100664.44;4099973;28;19950;-64
2023/07/21 10:11:47;;;;;;;;;;;;;;;19.52;nan;100651.63;4099771;28;19927;-65
2023/07/21 10:13:49;;;;;;;;;;;;;;;19.56;nan;100659.13;4099840;28;19927;-64
2023/07/21 10:15:50;;;;;;;;;;;;;;;19.60;nan;100656.72;4099586;28;19927;-64
2023/07/21 10:17:56;;;;;;;;;;;;;;;19.63;nan;100657.06;4098464;28;19926;-64
2023/07/21 10:20:06;;;;;;;;;;;;;;;19.66;nan;100658.50;4099474;28;19929;-64
2023/07/21 10:22:09;;;;;;;;;;;;;;;19.71;nan;100658.63;4099242;28;19932;-63
2023/07/21 10:24:11;;;;;;;;;;;;;;;19.74;nan;100657.31;4099871;28;19933;-63
2023/07/21 10:26:13;;;;;;;;;;;;;;;19.77;nan;100649.47;4099879;28;19926;-64
2023/07/21 10:28:15;;;;;;;;;;;;;;;19.79;nan;100650.06;4099296;28;19926;-64
2023/07/21 10:30:21;;;;;;;;;;;;;;;19.79;nan;100646.47;4099030;28;19926;-63
2023/07/21 10:32:23;;;;;;;;;;;;;;;19.82;nan;100640.53;4099270;28;19926;-64
2023/07/21 10:34:24;;;;;;;;;;;;;;;19.84;nan;100643.84;4099816;28;19923;-65
2023/07/21 10:36:26;;;;;;;;;;;;;;;19.86;nan;100638.97;4099792;28;19932;-64
2023/07/21 10:38:29;;;;;;;;;;;;;;;19.88;nan;100638.75;4098647;28;20320;-63
2023/07/21 10:40:31;;;;;;;;;;;;;;;19.89;nan;100634.91;4095121;28;19922;-64
2023/07/21 10:42:35;;;;;;;;;;;;;;;19.88;nan;100631.34;4099772;28;19927;-64
2023/07/21 10:44:39;;;;;;;;;;;;;;;19.90;nan;100634.66;4099592;28;19929;-64
2023/07/21 10:46:41;;;;;;;;;;;;;;;19.91;nan;100630.03;4099825;28;20415;-64
2023/07/21 10:48:43;;;;;;;;;;;;;;;19.91;nan;100635.50;4098593;28;20281;-64
2023/07/21 10:50:51;;;;;;;;;;;;;;;19.91;nan;100627.28;4097293;28;19926;-63
2023/07/21 10:52:53;;;;;;;;;;;;;;;19.93;nan;100616.91;4097919;28;19932;-64
2023/07/21 10:54:57;;;;;;;;;;;;;;;19.94;nan;100627.63;4099129;28;19923;-65
2023/07/21 10:56:59;;;;;;;;;;;;;;;19.95;nan;100631.19;4098849;29;19922;-64